createdAt,value
2023-07-19T00:00:28.631Z,14.35
2023-07-19T00:02:56.048Z,13.38
2023-07-19T00:05:24.018Z,15.02
2023-07-19T00:07:51.479Z,14.32
2023-07-19T00:10:19.002Z,14.15
2023-07-19T00:12:56.051Z,13.23
2023-07-19T00:15:25.414Z,13.43
2023-07-19T00:17:52.881Z,12.88
2023-07-19T00:20:21.090Z,12.93
2023-07-19T00:22:48.955Z,13.27
2023-07-19T00:25:17.019Z,12.55
2023-07-19T00:27:44.589Z,14.07
2023-07-19T00:30:12.491Z,13.40
2023-07-19T00:32:41.120Z,14.15
2023-07-19T00:35:08.681Z,14.13
2023-07-19T00:37:36.585Z,14.55
2023-07-19T00:40:04.880Z,15.25
2023-07-19T00:42:32.435Z,14.60
2023-07-19T00:45:00.265Z,13.45
2023-07-19T00:47:28.584Z,14.05
2023-07-19T00:49:56.480Z,13.73
2023-07-19T00:52:24.187Z,16.20
2023-07-19T00:54:51.636Z,15.57
2023-07-19T00:57:19.969Z,14.02
2023-07-19T00:59:47.937Z,13.48
2023-07-19T01:02:15.745Z,11.85
2023-07-19T01:04:43.145Z,12.30
2023-07-19T01:07:10.603Z,12.73
2023-07-19T01:09:38.001Z,14.30
2023-07-19T01:12:06.419Z,14.00
2023-07-19T01:14:34.317Z,14.50
2023-07-19T01:17:02.173Z,14.98
2023-07-19T01:19:31.721Z,14.73
2023-07-19T01:21:59.253Z,14.27
2023-07-19T01:24:27.199Z,13.82
2023-07-19T01:26:55.479Z,13.55
2023-07-19T01:29:25.354Z,14.18
2023-07-19T01:31:52.792Z,13.18
2023-07-19T01:34:20.135Z,13.23
2023-07-19T01:36:47.909Z,14.00
2023-07-19T01:39:15.330Z,12.57
2023-07-19T01:41:44.547Z,13.00
2023-07-19T01:44:11.968Z,13.65
2023-07-19T01:46:40.866Z,12.93
2023-07-19T01:49:08.768Z,13.05
2023-07-19T01:51:36.177Z,13.70
2023-07-19T01:54:03.531Z,13.20
2023-07-19T01:56:30.881Z,13.10
2023-07-19T01:58:58.658Z,13.50
2023-07-19T02:01:26.263Z,13.20
2023-07-19T02:03:54.158Z,12.32
2023-07-19T02:06:22.059Z,12.75
2023-07-19T02:08:49.812Z,13.18
2023-07-19T02:11:17.182Z,12.00
2023-07-19T02:13:46.659Z,12.57
2023-07-19T02:16:14.625Z,11.43
2023-07-19T02:18:43.809Z,13.30
2023-07-19T02:21:12.900Z,12.57
2023-07-19T02:23:40.922Z,12.88
2023-07-19T02:26:08.714Z,12.60
2023-07-19T02:28:36.138Z,12.40
2023-07-19T02:31:05.033Z,12.95
2023-07-19T02:33:32.467Z,12.65
2023-07-19T02:35:59.939Z,13.88
2023-07-19T02:38:27.828Z,13.02
2023-07-19T02:41:02.416Z,14.02
2023-07-19T02:43:30.467Z,13.20
2023-07-19T02:45:57.923Z,12.82
2023-07-19T02:48:26.455Z,13.77
2023-07-19T02:50:53.856Z,13.88
2023-07-19T02:53:21.642Z,12.20
2023-07-19T02:55:49.018Z,13.18
2023-07-19T02:58:16.496Z,12.63
2023-07-19T03:00:45.023Z,13.27
2023-07-19T03:03:13.220Z,11.77
2023-07-19T03:05:46.157Z,13.05
2023-07-19T03:08:13.798Z,12.65
2023-07-19T03:10:41.279Z,12.55
2023-07-19T03:13:09.711Z,14.75
2023-07-19T03:15:38.059Z,14.18
2023-07-19T03:18:06.008Z,14.63
2023-07-19T03:20:33.417Z,14.02
2023-07-19T03:23:02.196Z,13.88
2023-07-19T03:25:30.267Z,14.40
2023-07-19T03:27:58.941Z,14.73
2023-07-19T03:30:27.050Z,15.02
2023-07-19T03:32:54.886Z,16.13
2023-07-19T03:35:22.788Z,14.63
2023-07-19T03:37:50.820Z,14.90
2023-07-19T03:40:19.751Z,16.45
2023-07-19T03:42:47.566Z,16.95
2023-07-19T03:45:15.551Z,16.00
2023-07-19T03:47:44.531Z,16.73
2023-07-19T03:50:12.264Z,15.05
2023-07-19T03:52:40.963Z,14.90
2023-07-19T03:55:09.359Z,14.55
2023-07-19T03:57:38.958Z,13.57
2023-07-19T04:00:10.347Z,14.15
2023-07-19T04:02:46.987Z,14.23
2023-07-19T04:05:17.464Z,14.70
2023-07-19T04:07:45.144Z,14.40
2023-07-19T04:10:12.766Z,14.60
2023-07-19T04:12:40.187Z,14.00
2023-07-19T04:15:09.660Z,14.20
2023-07-19T04:17:37.306Z,14.07
2023-07-19T04:20:07.531Z,15.27
2023-07-19T04:22:35.322Z,14.87
2023-07-19T04:25:04.592Z,22.73
2023-07-19T04:27:32.642Z,14.98
2023-07-19T04:30:00.983Z,14.30
2023-07-19T04:32:28.504Z,13.63
2023-07-19T04:34:55.947Z,14.52
2023-07-19T04:37:23.890Z,14.43
2023-07-19T04:39:51.366Z,15.32
2023-07-19T04:42:22.657Z,15.30
2023-07-19T04:44:52.164Z,14.10
2023-07-19T04:47:21.945Z,15.07
2023-07-19T04:49:49.696Z,15.02
2023-07-19T04:52:17.460Z,14.40
2023-07-19T04:54:48.966Z,14.75
2023-07-19T04:57:17.119Z,14.48
2023-07-19T04:59:46.904Z,14.90
2023-07-19T05:02:14.712Z,15.93
2023-07-19T05:04:42.082Z,15.40
2023-07-19T05:07:09.823Z,15.63
2023-07-19T05:09:37.725Z,16.42
2023-07-19T05:12:06.065Z,14.90
2023-07-19T05:14:33.422Z,15.02
2023-07-19T05:17:02.529Z,15.75
2023-07-19T05:19:30.078Z,16.20
2023-07-19T05:21:58.121Z,16.73
2023-07-19T05:24:27.425Z,17.88
2023-07-19T05:26:55.695Z,17.13
2023-07-19T05:29:23.723Z,16.63
2023-07-19T05:31:51.169Z,16.20
2023-07-19T05:34:19.012Z,17.35
2023-07-19T05:36:46.371Z,16.40
2023-07-19T05:39:14.271Z,15.98
2023-07-19T05:41:41.703Z,16.95
2023-07-19T05:44:12.640Z,15.23
2023-07-19T05:46:40.863Z,16.23
2023-07-19T05:49:08.642Z,14.98
2023-07-19T05:51:35.997Z,13.57
2023-07-19T05:54:04.766Z,13.73
2023-07-19T05:56:32.331Z,13.48
2023-07-19T05:58:59.663Z,13.98
2023-07-19T06:01:30.540Z,14.13
2023-07-19T06:04:00.141Z,13.82
2023-07-19T06:06:27.722Z,12.93
2023-07-19T06:08:55.171Z,14.07
2023-07-19T06:11:22.686Z,13.82
2023-07-19T06:13:50.926Z,12.65
2023-07-19T06:16:18.644Z,14.90
2023-07-19T06:18:45.951Z,14.20
2023-07-19T06:21:13.314Z,14.13
2023-07-19T06:23:41.115Z,13.77
2023-07-19T06:26:09.096Z,12.52
2023-07-19T06:28:37.196Z,12.02
2023-07-19T06:31:04.634Z,12.13
2023-07-19T06:33:32.009Z,11.68
2023-07-19T06:35:59.412Z,11.90
2023-07-19T06:38:26.904Z,10.95
2023-07-19T06:40:54.228Z,11.02
2023-07-19T06:43:22.573Z,10.77
2023-07-19T06:45:50.567Z,11.05
2023-07-19T06:48:18.010Z,10.70
2023-07-19T06:50:45.334Z,10.05
2023-07-19T06:53:12.908Z,10.02
2023-07-19T06:55:40.675Z,10.45
2023-07-19T06:58:08.834Z,9.43
2023-07-19T07:00:37.009Z,9.38
2023-07-19T07:03:05.165Z,9.77
2023-07-19T07:05:34.477Z,10.05
2023-07-19T07:08:01.844Z,9.02
2023-07-19T07:10:29.728Z,9.23
2023-07-19T07:12:57.309Z,8.85
2023-07-19T07:15:24.946Z,9.07
2023-07-19T07:17:53.047Z,9.98
2023-07-19T07:20:20.906Z,9.18
2023-07-19T07:22:48.823Z,9.38
2023-07-19T07:25:16.678Z,9.68
2023-07-19T07:27:44.410Z,10.02
2023-07-19T07:30:11.804Z,8.80
2023-07-19T07:32:39.630Z,10.20
2023-07-19T07:35:07.889Z,10.60
2023-07-19T07:37:36.171Z,9.45
2023-07-19T07:40:04.464Z,9.98
2023-07-19T07:42:31.774Z,9.52
2023-07-19T07:44:59.518Z,10.05
2023-07-19T07:47:27.393Z,10.23
2023-07-19T07:49:57.128Z,8.93
2023-07-19T07:52:25.846Z,9.55
2023-07-19T07:54:53.613Z,9.90
2023-07-19T07:57:21.083Z,9.10
2023-07-19T07:59:48.502Z,9.23
2023-07-19T08:02:15.826Z,9.45
2023-07-19T08:04:43.564Z,10.18
2023-07-19T08:07:10.893Z,9.02
2023-07-19T08:09:38.628Z,9.13
2023-07-19T08:12:06.834Z,9.55
2023-07-19T08:14:34.253Z,9.18
2023-07-19T08:17:03.116Z,9.30
2023-07-19T08:19:30.666Z,9.73
2023-07-19T08:22:03.818Z,8.60
2023-07-19T08:24:31.388Z,9.10
2023-07-19T08:26:59.446Z,9.75
2023-07-19T08:29:29.935Z,10.25
2023-07-19T08:31:57.280Z,8.90
2023-07-19T08:34:24.908Z,9.10
2023-07-19T08:36:52.796Z,9.48
2023-07-19T08:39:20.078Z,8.98
2023-07-19T08:41:48.039Z,9.20
2023-07-19T08:44:15.875Z,9.60
2023-07-19T08:46:45.531Z,9.32
2023-07-19T08:49:13.713Z,9.27
2023-07-19T08:51:42.299Z,9.88
2023-07-19T08:54:09.883Z,9.32
2023-07-19T08:56:37.396Z,9.52
2023-07-19T08:59:05.573Z,8.63
2023-07-19T09:01:33.604Z,12.65
2023-07-19T09:04:01.876Z,8.68
2023-07-19T09:06:31.370Z,10.35
2023-07-19T09:08:59.222Z,9.98
2023-07-19T09:11:27.044Z,8.50
2023-07-19T09:13:56.662Z,8.73
2023-07-19T09:16:32.833Z,9.88
2023-07-19T09:19:02.002Z,9.75
2023-07-19T09:21:37.202Z,9.60
2023-07-19T09:24:06.468Z,9.82
2023-07-19T09:27:01.455Z,10.50
2023-07-19T09:29:32.359Z,9.35
2023-07-19T09:34:39.758Z,9.32
2023-07-19T09:37:07.723Z,9.68
2023-07-19T09:39:36.628Z,9.77
2023-07-19T09:42:06.092Z,9.13
2023-07-19T09:44:34.976Z,10.88
2023-07-19T09:47:11.215Z,10.35
2023-07-19T09:49:46.368Z,9.68
2023-07-19T09:52:18.791Z,10.50
2023-07-19T09:54:47.072Z,9.88
2023-07-19T09:57:15.743Z,9.52
2023-07-19T09:59:49.535Z,9.15
2023-07-19T10:02:17.992Z,9.43
2023-07-19T10:04:49.073Z,10.07
2023-07-19T10:07:21.888Z,10.02
2023-07-19T10:09:52.564Z,10.07
2023-07-19T10:12:20.865Z,10.23
2023-07-19T10:14:55.504Z,10.80
2023-07-19T10:17:25.777Z,10.52
2023-07-19T10:20:14.001Z,10.80
2023-07-19T10:22:57.340Z,11.93
2023-07-19T10:25:29.064Z,11.23
2023-07-19T10:27:58.588Z,11.43
2023-07-19T10:30:45.199Z,9.40
2023-07-19T10:33:17.666Z,9.10
2023-07-19T10:35:45.339Z,9.70
2023-07-19T10:38:17.046Z,10.15
2023-07-19T10:40:47.564Z,10.30
2023-07-19T10:43:17.262Z,8.95
2023-07-19T10:45:50.817Z,8.85
2023-07-19T10:48:18.347Z,10.05
2023-07-19T10:50:47.807Z,8.70
2023-07-19T10:53:15.767Z,9.25
2023-07-19T10:55:53.538Z,9.32
2023-07-19T10:58:31.578Z,10.07
2023-07-19T11:00:59.719Z,8.98
2023-07-19T11:03:27.749Z,9.23
2023-07-19T11:05:55.961Z,9.25
2023-07-19T11:08:25.119Z,8.85
2023-07-19T11:10:55.982Z,8.95
2023-07-19T11:13:26.173Z,9.63
2023-07-19T11:15:55.822Z,9.43
2023-07-19T11:18:29.779Z,9.60
2023-07-19T11:20:59.649Z,8.93
2023-07-19T11:23:31.553Z,9.23
2023-07-19T11:26:07.001Z,8.52
2023-07-19T11:28:47.701Z,9.02
2023-07-19T11:34:09.592Z,9.15
2023-07-19T11:36:42.116Z,8.50
2023-07-19T11:39:16.277Z,9.05
2023-07-19T11:41:45.630Z,9.07
2023-07-19T11:44:17.861Z,8.43
2023-07-19T11:46:46.026Z,8.55
2023-07-19T11:49:13.539Z,9.02
2023-07-19T11:51:42.186Z,8.00
2023-07-19T11:54:09.814Z,8.88
2023-07-19T11:56:37.936Z,8.52
2023-07-19T11:59:05.965Z,9.50
2023-07-19T12:01:34.002Z,9.02
2023-07-19T12:04:03.633Z,7.85
2023-07-19T12:06:32.259Z,8.35
2023-07-19T12:09:00.396Z,9.73
2023-07-19T12:11:27.983Z,9.85
2023-07-19T12:13:58.259Z,9.00
2023-07-19T12:16:26.914Z,9.63
2023-07-19T12:18:54.900Z,9.13
2023-07-19T12:21:23.506Z,8.90
2023-07-19T12:28:54.329Z,8.80
2023-07-19T12:31:21.958Z,8.70
2023-07-19T12:33:50.681Z,9.90
2023-07-19T12:36:18.579Z,9.18
2023-07-19T12:38:49.116Z,9.60
2023-07-19T12:41:17.762Z,9.10
2023-07-19T12:43:45.537Z,8.63
2023-07-19T12:46:13.084Z,8.30
2023-07-19T12:48:41.817Z,9.90
2023-07-19T12:51:09.370Z,9.05
2023-07-19T12:53:38.927Z,9.00
2023-07-19T12:56:07.901Z,8.77
2023-07-19T12:58:35.392Z,7.95
2023-07-19T13:01:03.475Z,7.78
2023-07-19T13:03:31.111Z,8.80
2023-07-19T13:05:59.020Z,7.47
2023-07-19T13:08:28.464Z,8.70
2023-07-19T13:10:56.287Z,8.75
2023-07-19T13:13:23.621Z,9.65
2023-07-19T13:15:50.940Z,7.60
2023-07-19T13:18:18.759Z,7.45
2023-07-19T13:20:46.145Z,8.15
2023-07-19T13:23:18.113Z,8.95
2023-07-19T13:25:46.543Z,7.90
2023-07-19T13:28:14.482Z,8.40
2023-07-19T13:30:42.451Z,7.72
2023-07-19T13:33:11.564Z,8.85
2023-07-19T13:38:10.075Z,8.75
2023-07-19T13:40:37.581Z,9.10
2023-07-19T13:43:05.309Z,8.95
2023-07-19T13:45:35.142Z,9.07
2023-07-19T13:48:02.698Z,8.57
2023-07-19T13:50:31.568Z,8.30
2023-07-19T13:53:00.480Z,8.77
2023-07-19T13:55:28.447Z,8.25
2023-07-19T13:57:55.863Z,7.82
2023-07-19T14:00:24.410Z,8.85
2023-07-19T14:02:53.359Z,8.80
2023-07-19T14:05:21.377Z,8.23
2023-07-19T14:07:49.094Z,8.70
2023-07-19T14:10:16.622Z,9.00
2023-07-19T14:12:45.007Z,8.23
2023-07-19T14:15:12.905Z,9.13
2023-07-19T14:17:41.485Z,8.57
2023-07-19T14:20:09.909Z,8.70
2023-07-19T14:22:38.097Z,7.82
2023-07-19T14:25:07.923Z,8.50
2023-07-19T14:27:38.081Z,8.10
2023-07-19T14:30:08.015Z,8.38
2023-07-19T14:32:36.192Z,7.22
2023-07-19T14:35:04.453Z,8.20
2023-07-19T14:37:32.197Z,7.55
2023-07-19T14:39:59.575Z,8.10
2023-07-19T14:42:27.923Z,8.32
2023-07-19T14:44:55.265Z,8.18
2023-07-19T14:47:23.511Z,7.32
2023-07-19T14:49:51.730Z,7.25
2023-07-19T14:52:21.119Z,7.82
2023-07-19T14:54:48.501Z,8.40
2023-07-19T14:57:16.474Z,6.70
2023-07-19T14:59:46.693Z,8.02
2023-07-19T15:02:33.072Z,7.00
2023-07-19T15:05:02.053Z,6.97
2023-07-19T15:07:30.579Z,7.50
2023-07-19T15:09:58.002Z,8.43
2023-07-19T15:12:25.806Z,7.43
2023-07-19T15:14:53.790Z,7.50
2023-07-19T15:17:21.382Z,7.20
2023-07-19T15:19:48.870Z,6.85
2023-07-19T15:22:16.595Z,7.55
2023-07-19T15:24:44.110Z,7.22
2023-07-19T15:27:11.662Z,6.03
2023-07-19T15:29:39.787Z,6.93
2023-07-19T15:32:07.885Z,6.00
2023-07-19T15:34:35.785Z,5.95
2023-07-19T15:37:03.393Z,6.72
2023-07-19T15:39:33.165Z,6.28
2023-07-19T15:42:00.844Z,6.25
2023-07-19T15:44:36.105Z,6.05
2023-07-19T15:47:05.845Z,5.95
2023-07-19T15:49:33.993Z,6.18
2023-07-19T15:52:02.103Z,6.07
2023-07-19T15:54:30.243Z,6.13
2023-07-19T15:56:57.929Z,6.07
2023-07-19T15:59:25.638Z,5.47
2023-07-19T16:01:54.354Z,6.38
2023-07-19T16:04:22.201Z,6.10
2023-07-19T16:06:49.507Z,6.00
2023-07-19T16:09:17.295Z,5.80
2023-07-19T16:11:45.081Z,6.30
2023-07-19T16:14:13.628Z,5.80
2023-07-19T16:16:41.088Z,5.70
2023-07-19T16:19:09.545Z,6.18
2023-07-19T16:21:38.289Z,6.28
2023-07-19T16:24:06.473Z,5.93
2023-07-19T16:26:34.390Z,6.45
2023-07-19T16:29:02.497Z,5.85
2023-07-19T16:31:30.276Z,5.80
2023-07-19T16:33:57.629Z,5.65
2023-07-19T16:36:25.301Z,6.43
2023-07-19T16:38:53.140Z,6.10
2023-07-19T16:41:21.569Z,6.50
2023-07-19T16:43:49.153Z,7.00
2023-07-19T16:46:16.798Z,6.25
2023-07-19T16:48:44.602Z,6.38
2023-07-19T16:51:12.462Z,5.68
2023-07-19T16:53:39.758Z,6.25
2023-07-19T16:56:07.495Z,6.00
2023-07-19T16:58:35.803Z,6.03
2023-07-19T17:01:03.165Z,5.80
2023-07-19T17:03:30.789Z,6.00
2023-07-19T17:05:58.791Z,6.82
2023-07-19T17:08:26.555Z,6.18
2023-07-19T17:10:54.030Z,6.32
2023-07-19T17:13:23.485Z,6.40
2023-07-19T17:15:53.516Z,6.32
2023-07-19T17:18:21.057Z,5.88
2023-07-19T17:20:49.036Z,6.15
2023-07-19T17:23:16.395Z,7.10
2023-07-19T17:25:44.463Z,7.13
2023-07-19T17:28:11.759Z,6.18
2023-07-19T17:30:41.920Z,6.68
2023-07-19T17:33:09.454Z,6.40
2023-07-19T17:35:36.893Z,6.82
2023-07-19T17:38:04.793Z,7.18
2023-07-19T17:40:32.193Z,7.20
2023-07-19T17:42:59.658Z,7.25
2023-07-19T17:45:27.947Z,7.15
2023-07-19T17:47:55.422Z,7.80
2023-07-19T17:50:23.343Z,7.53
2023-07-19T17:52:51.510Z,7.60
2023-07-19T17:55:18.964Z,7.43
2023-07-19T17:57:46.400Z,7.88
2023-07-19T18:00:14.250Z,8.48
2023-07-19T18:02:43.116Z,8.38
2023-07-19T18:05:11.033Z,8.43
2023-07-19T18:07:38.387Z,7.88
2023-07-19T18:10:06.026Z,8.25
2023-07-19T18:12:33.987Z,7.93
2023-07-19T18:15:04.806Z,7.55
2023-07-19T18:17:32.714Z,8.55
2023-07-19T18:20:00.476Z,7.35
2023-07-19T18:22:29.114Z,8.18
2023-07-19T18:24:56.774Z,8.80
2023-07-19T18:27:24.124Z,10.43
2023-07-19T18:29:52.240Z,9.38
2023-07-19T18:32:20.031Z,8.68
2023-07-19T18:34:48.487Z,8.30
2023-07-19T18:37:15.981Z,8.50
2023-07-19T18:39:43.899Z,8.52
2023-07-19T18:42:14.263Z,8.52
2023-07-19T18:44:42.020Z,8.45
2023-07-19T18:47:09.440Z,9.70
2023-07-19T18:49:36.727Z,9.45
2023-07-19T18:52:05.292Z,9.65
2023-07-19T18:54:33.095Z,9.80
2023-07-19T18:57:00.848Z,9.68
2023-07-19T18:59:28.819Z,12.15
2023-07-19T19:01:56.260Z,12.07
2023-07-19T19:04:23.590Z,11.85
2023-07-19T19:06:50.892Z,10.15
2023-07-19T19:09:18.253Z,11.40
2023-07-19T19:11:46.049Z,11.05
2023-07-19T19:14:13.384Z,11.85
2023-07-19T19:16:40.768Z,10.80
2023-07-19T19:19:10.954Z,12.38
2023-07-19T19:21:39.318Z,12.93
2023-07-19T19:24:09.064Z,12.00
2023-07-19T19:26:37.804Z,10.77
2023-07-19T19:29:05.577Z,9.13
2023-07-19T19:31:34.072Z,8.32
2023-07-19T19:34:02.270Z,7.82
2023-07-19T19:36:29.676Z,6.88
2023-07-19T19:38:58.704Z,6.68
2023-07-19T19:41:27.101Z,5.97
2023-07-19T19:43:54.527Z,6.25
2023-07-19T19:46:22.218Z,6.68
2023-07-19T19:48:50.031Z,6.32
2023-07-19T19:51:17.502Z,5.82
2023-07-19T19:53:45.225Z,5.25
2023-07-19T19:58:45.251Z,6.15
2023-07-19T20:01:14.756Z,5.63
2023-07-19T20:03:42.615Z,6.32
2023-07-19T20:06:10.164Z,6.15
2023-07-19T20:08:37.647Z,6.95
2023-07-19T20:11:06.318Z,6.60
2023-07-19T20:13:33.716Z,6.30
2023-07-19T20:16:02.070Z,6.43
2023-07-19T20:23:28.302Z,6.28
2023-07-19T20:26:11.004Z,6.00
2023-07-19T20:28:40.444Z,5.30
2023-07-19T20:31:08.155Z,6.35
2023-07-19T20:33:38.609Z,6.30
2023-07-19T20:36:07.168Z,5.57
2023-07-19T20:43:36.726Z,6.53
2023-07-19T20:48:36.182Z,6.72
2023-07-19T20:51:13.975Z,6.15
2023-07-19T20:53:41.617Z,7.25
2023-07-19T20:56:09.454Z,6.68
2023-07-19T20:58:36.896Z,7.53
2023-07-19T21:01:05.263Z,7.68
2023-07-19T21:03:34.080Z,7.43
2023-07-19T21:06:02.814Z,8.15
2023-07-19T21:08:30.701Z,8.95
2023-07-19T21:10:58.797Z,8.48
